Login
Accedi

Easy Biker
2 attività - Ultimo allenamento il 19/09/2018
19/09/2018 Visibile a tutti Riding in the rain - Castelmola 55.42 634 03:06:21 17.85 Km\h
17/09/2018 Visibile a tutti Scarico 21.23 94 01:07:57 18.74 Km\h
16/09/2018 Visibile a tutti Test gran Fondo EM 45.55 1429 04:44:05 9.62 Km\h
14/09/2018 Visibile a tutti Morning Ride 4.7 50 00:20:07 14.02 Km\h
14/09/2018 Visibile a tutti Afternoon Ride 3.82 3 00:10:20 22.18 Km\h
13/09/2018 Visibile a tutti Afternoon Ride 32.99 523 01:59:09 16.61 Km\h
13/09/2018 Visibile a tutti Morning Ride 4.6 48 00:19:44 13.99 Km\h
12/09/2018 Visibile a tutti Afternoon Ride 5.01 12 00:22:16 13.51 Km\h
12/09/2018 Visibile a tutti Morning Ride 5.14 54 00:20:52 14.77 Km\h
10/09/2018 Visibile a tutti Afternoon Ride 75.51 1195 04:34:37 16.5 Km\h
04/09/2018 Visibile a tutti Afternoon Ride 18.4 191 01:11:34 15.42 Km\h
02/09/2018 Visibile a tutti Finalmente il giro completo dell'Etna! 78.65 2192 08:46:16 8.97 Km\h
29/08/2018 Visibile a tutti Afternoon Ride 33.3 567 02:02:02 16.37 Km\h
27/08/2018 Visibile a tutti Giro ultra low bpm 69.06 482 04:05:44 16.86 Km\h
22/08/2018 Visibile a tutti Il secondo amore non si scorda mai 43.26 1204 03:23:37 12.75 Km\h
20/08/2018 Visibile a tutti Evening Ride 3.48 35 00:25:36 8.17 Km\h
19/08/2018 Visibile a tutti Morning Ride 28.14 847 03:34:47 7.86 Km\h
16/08/2018 Visibile a tutti Morning Ride 46.22 394 02:16:16 20.35 Km\h
13/08/2018 Visibile a tutti Evening Ride 30.76 115 01:22:51 22.27 Km\h
11/08/2018 Visibile a tutti Afternoon Ride 21.38 555 02:11:38 9.75 Km\h
08/08/2018 Visibile a tutti Afternoon Ride 32.93 1022 02:58:45 11.05 Km\h
06/08/2018 Visibile a tutti Afternoon Ride 38.25 59 02:35:10 14.79 Km\h
04/08/2018 Visibile a tutti Morning Ride 26.14 718 02:15:06 11.61 Km\h
01/08/2018 Visibile a tutti Afternoon Ride 41.49 163 02:27:30 16.88 Km\h
30/07/2018 Visibile a tutti Afternoon Ride 101.41 595 04:52:36 20.79 Km\h
29/07/2018 Visibile a tutti Lunch Ride 13.63 0 00:34:15 23.88 Km\h
29/07/2018 Visibile a tutti Morning Ride 13.22 654 01:49:42 7.23 Km\h
25/07/2018 Visibile a tutti Afternoon Ride 27.81 757 02:37:49 10.57 Km\h
24/07/2018 Visibile a tutti Evening Ride 37.79 223 01:43:50 21.84 Km\h
21/07/2018 Visibile a tutti Morning Ride 38 147 01:35:03 23.99 Km\h
18/07/2018 Visibile a tutti Giarre-Roccafiorita 75.26 1180 04:40:44 16.08 Km\h
16/07/2018 Visibile a tutti Afternoon Ride 38.62 220 01:37:28 23.78 Km\h
14/07/2018 Visibile a tutti Afternoon Ride 39.61 222 01:56:15 20.44 Km\h
11/07/2018 Visibile a tutti Evening Ride 9.15 95 00:56:43 9.68 Km\h
09/07/2018 Visibile a tutti Afternoon Ride 17.65 486 01:31:27 11.58 Km\h
04/07/2018 Visibile a tutti Afternoon Ride 33.92 895 02:30:40 13.51 Km\h
02/07/2018 Visibile a tutti Afternoon Ride 63.55 793 03:26:17 18.49 Km\h
29/06/2018 Visibile a tutti Evening Ride 18.12 81 00:45:56 23.67 Km\h
27/06/2018 Visibile a tutti Afternoon Ride 55.39 705 03:16:16 16.93 Km\h
25/06/2018 Visibile a tutti Afternoon Ride 46.11 302 02:07:38 21.68 Km\h
23/06/2018 Visibile a tutti Morning Ride 16.21 440 01:16:19 12.75 Km\h
20/06/2018 Visibile a tutti Afternoon Ride 29.14 324 01:39:53 17.51 Km\h
18/06/2018 Visibile a tutti Afternoon Ride 58.32 402 02:51:47 20.37 Km\h
13/06/2018 Visibile a tutti Afternoon Ride 38.35 216 01:45:36 21.79 Km\h
11/06/2018 Visibile a tutti Evening Ride 38.14 224 01:46:54 21.41 Km\h
06/06/2018 Visibile a tutti Afternoon Ride 38.2 215 01:53:38 20.17 Km\h
30/05/2018 Visibile a tutti Afternoon Ride 43.19 393 02:18:40 18.69 Km\h
27/05/2018 Visibile a tutti Morning Walk 9.28 456 03:29:53 2.65 Km\h
23/05/2018 Visibile a tutti Evening Ride 30.03 330 01:42:34 17.57 Km\h
18/05/2018 Visibile a tutti Evening Ride 15.03 132 00:47:38 18.94 Km\h
16/05/2018 Visibile a tutti Afternoon Ride 38.65 233 01:55:08 20.14 Km\h
13/05/2018 Visibile a tutti Afternoon Ride 11.49 108 00:33:06 20.82 Km\h
06/05/2018 Visibile a tutti Lunch Ride 20.13 130 02:27:03 8.21 Km\h
09/04/2018 Visibile a tutti Evening Ride 11.5 117 00:38:51 17.75 Km\h
07/04/2018 Visibile a tutti Afternoon Ride 9.32 15 00:49:27 11.31 Km\h
07/04/2018 Visibile a tutti Lunch Ride 11.28 27 00:56:15 12.03 Km\h
31/03/2018 Visibile a tutti Afternoon Ride 17.06 24 01:15:32 13.55 Km\h
24/03/2018 Visibile a tutti Lunch Ride 15.07 5 01:13:43 12.27 Km\h
02/07/2017 Visibile a tutti Morning Run 4.58 103 00:27:35 9.96 Km\h
01/01/1970 Visibile a tutti Afternoon Ride 0 0 0 Km\h
01/01/1970 Visibile a tutti Afternoon Hike 0 0 0 Km\h
01/01/1970 Visibile a tutti Afternoon Hike 0 0 0 Km\h
01/01/1970 Visibile a tutti Finalmente il giro completo dell'Etna! 0 0 0 Km\h
01/01/1970 Visibile a tutti Lunch Walk 0 0 0 Km\h
01/01/1970 Visibile a tutti Lunch Walk 0 0 0 Km\h
01/01/1970 Visibile a tutti Lunch Walk 0 0 0 Km\h
01/01/1970 Visibile a tutti Lunch Walk 0 0 0 Km\h
01/01/1970 Visibile a tutti Lunch Walk 0 0 0 Km\h
01/01/1970 Visibile a tutti Lunch Walk 0 0 0 Km\h
01/01/1970 Visibile a tutti Lunch Walk 0 0 0 Km\h
Mostra allenamenti degli anni precedenti
Num. allenamenti 58
Chilometri 1 845 Km
Dislivello 23 732 mt
Tempo in sella 122:06:56
Velocità media 15.91 Km/h
battito medio 150
Punti 67
Live Tracking »


 
Smettendo di seguire questo utente verrà rimosso dalla classifica degli utenti che segui. Non sarai più in grado di confrontarti con i suoi progressi

Questo utente verrà aggiunto alla classifica degli utenti che segui. Da questa classifica puoi seguire i suoi progressi e confrontarli con i tuoi


MTB-Forum.it | 2012-2018 Training Camp v.1.6 rev 05